createdAt,value
2019-04-20T00:02:15.666Z,33.33
2019-04-20T00:04:41.156Z,34.07
2019-04-20T00:07:08.213Z,16.20
2019-04-20T00:09:38.723Z,22.17
2019-04-20T00:12:12.734Z,25.57
2019-04-20T00:14:36.254Z,32.27
2019-04-20T00:17:03.073Z,24.83
2019-04-20T00:19:37.496Z,22.20
2019-04-20T00:22:36.367Z,20.40
2019-04-20T00:25:20.875Z,18.93
2019-04-20T00:28:25.208Z,19.53
2019-04-20T00:30:55.735Z,15.43
2019-04-20T00:33:27.416Z,19.60
2019-04-20T00:35:40.091Z,16.53
2019-04-20T00:38:07.820Z,19.80
2019-04-20T00:40:36.090Z,12.97
2019-04-20T00:43:04.675Z,13.00
2019-04-20T00:45:35.236Z,15.30
2019-04-20T00:48:07.966Z,14.27
2019-04-20T00:50:46.964Z,15.53
2019-04-20T00:53:11.441Z,15.10
2019-04-20T00:55:27.775Z,11.87
2019-04-20T00:58:03.711Z,16.03
2019-04-20T01:00:40.815Z,12.17
2019-04-20T01:03:09.573Z,14.97
2019-04-20T01:08:27.396Z,15.23
2019-04-20T01:10:57.466Z,13.00
2019-04-20T01:13:25.192Z,12.00
2019-04-20T01:15:58.934Z,13.60
2019-04-20T01:18:21.384Z,16.57
2019-04-20T01:20:49.376Z,15.53
2019-04-20T01:23:20.765Z,14.93
2019-04-20T01:25:48.388Z,13.23
2019-04-20T01:28:32.403Z,13.17
2019-04-20T01:30:58.553Z,13.27
2019-04-20T01:33:25.951Z,14.37
2019-04-20T01:36:00.679Z,11.53
2019-04-20T01:38:26.800Z,13.17
2019-04-20T01:40:40.212Z,19.03
2019-04-20T01:43:07.995Z,12.87
2019-04-20T01:45:39.234Z,15.20
2019-04-20T01:48:06.363Z,12.20
2019-04-20T01:50:37.995Z,19.73
2019-04-20T01:53:12.770Z,14.57
2019-04-20T01:55:45.658Z,18.07
2019-04-20T01:58:30.248Z,13.90
2019-04-20T02:04:06.389Z,12.53
2019-04-20T02:06:39.863Z,13.60
2019-04-20T02:09:14.524Z,15.17
2019-04-20T02:11:41.664Z,10.40
2019-04-20T02:14:09.145Z,17.17
2019-04-20T02:16:40.795Z,15.10
2019-04-20T02:19:21.636Z,13.20
2019-04-20T02:21:46.693Z,20.53
2019-04-20T02:24:05.989Z,21.87
2019-04-20T02:26:32.318Z,15.80
2019-04-20T02:29:24.524Z,14.97
2019-04-20T02:35:07.637Z,16.47
2019-04-20T02:38:08.419Z,20.90
2019-04-20T02:40:19.187Z,19.37
2019-04-20T02:42:51.464Z,20.93
2019-04-20T02:45:57.764Z,17.00
2019-04-20T02:48:36.931Z,17.00
2019-04-20T02:51:06.599Z,17.27
2019-04-20T02:56:08.299Z,16.43
2019-04-20T02:58:34.398Z,18.20
2019-04-20T03:00:55.107Z,19.87
2019-04-20T03:03:10.119Z,22.83
2019-04-20T03:06:04.628Z,23.27
2019-04-20T03:08:30.525Z,13.50
2019-04-20T03:11:09.398Z,19.37
2019-04-20T03:13:32.268Z,23.07
2019-04-20T03:16:09.088Z,22.80
2019-04-20T03:18:33.818Z,22.83
2019-04-20T03:20:58.459Z,17.93
2019-04-20T03:23:35.611Z,22.63
2019-04-20T03:26:05.296Z,22.50
2019-04-20T03:29:01.834Z,22.27
2019-04-20T03:32:03.611Z,26.53
2019-04-20T03:36:44.712Z,24.30
2019-04-20T03:39:01.496Z,23.70
2019-04-20T03:41:22.461Z,23.67
2019-04-20T03:43:43.542Z,22.30
2019-04-20T03:46:14.368Z,21.93
2019-04-20T03:48:56.237Z,26.93
2019-04-20T03:51:37.677Z,36.37
2019-04-20T03:54:13.365Z,29.83
2019-04-20T03:56:54.529Z,25.50
2019-04-20T03:59:45.743Z,25.47
2019-04-20T04:02:29.748Z,27.63
2019-04-20T04:05:04.286Z,24.73
2019-04-20T04:07:22.875Z,24.80
2019-04-20T04:10:03.316Z,21.83
2019-04-20T04:12:56.919Z,24.20
2019-04-20T04:15:25.163Z,26.00
2019-04-20T04:17:58.800Z,28.90
2019-04-20T04:20:34.360Z,24.77
2019-04-20T04:23:10.274Z,22.37
2019-04-20T04:25:33.692Z,19.00
2019-04-20T04:28:06.994Z,19.23
2019-04-20T04:30:35.460Z,22.33
2019-04-20T04:33:32.710Z,19.00
2019-04-20T04:35:29.815Z,19.57
2019-04-20T04:38:08.067Z,25.47
2019-04-20T04:40:42.487Z,21.70
2019-04-20T04:43:05.694Z,22.40
2019-04-20T04:45:17.685Z,22.17
2019-04-20T04:47:45.290Z,22.57
2019-04-20T04:50:17.612Z,27.17
2019-04-20T04:52:52.237Z,37.30
2019-04-20T04:55:23.736Z,22.20
2019-04-20T04:57:41.220Z,19.20
2019-04-20T05:00:10.225Z,24.97
2019-04-20T05:02:45.064Z,27.13
2019-04-20T05:05:36.006Z,27.00
2019-04-20T05:07:58.106Z,23.40
2019-04-20T05:10:14.171Z,28.37
2019-04-20T05:12:42.231Z,26.20
2019-04-20T05:15:24.446Z,24.10
2019-04-20T05:18:01.573Z,27.03
2019-04-20T05:20:30.751Z,19.83
2019-04-20T05:23:12.671Z,27.10
2019-04-20T05:26:11.629Z,20.60
2019-04-20T05:28:27.650Z,23.67
2019-04-20T05:30:48.674Z,28.73
2019-04-20T05:33:25.524Z,23.90
2019-04-20T05:36:01.852Z,30.00
2019-04-20T05:38:37.169Z,26.23
2019-04-20T05:41:01.638Z,30.40
2019-04-20T05:43:33.039Z,29.17
2019-04-20T05:45:58.704Z,30.00
2019-04-20T05:48:27.324Z,27.80
2019-04-20T05:50:57.521Z,32.03
2019-04-20T05:53:34.038Z,26.73
2019-04-20T05:55:55.997Z,27.30
2019-04-20T05:58:32.713Z,26.23
2019-04-20T06:01:08.829Z,26.77
2019-04-20T06:03:28.950Z,28.30
2019-04-20T06:06:05.113Z,41.53
2019-04-20T06:08:38.984Z,34.33
2019-04-20T06:10:55.074Z,37.03
2019-04-20T06:13:32.663Z,34.93
2019-04-20T06:16:07.356Z,30.47
2019-04-20T06:18:40.160Z,32.30
2019-04-20T06:21:26.541Z,34.13
2019-04-20T06:24:15.658Z,28.30
2019-04-20T06:26:52.018Z,28.57
2019-04-20T06:29:07.286Z,35.27
2019-04-20T06:31:39.797Z,31.57
2019-04-20T06:34:30.423Z,38.73
2019-04-20T06:36:50.813Z,31.07
2019-04-20T06:39:26.302Z,26.77
2019-04-20T06:44:26.436Z,24.23
2019-04-20T06:46:55.305Z,27.30
2019-04-20T06:49:25.554Z,24.23
2019-04-20T06:51:57.391Z,35.20
2019-04-20T06:54:18.310Z,28.00
2019-04-20T06:57:00.206Z,21.80
2019-04-20T06:59:33.483Z,29.20
2019-04-20T07:02:20.219Z,28.63
2019-04-20T07:04:40.230Z,31.30
2019-04-20T07:06:56.186Z,26.63
2019-04-20T07:09:32.435Z,32.03
2019-04-20T07:11:50.743Z,30.23
2019-04-20T07:14:06.650Z,40.27
2019-04-20T07:17:02.842Z,28.60
2019-04-20T07:19:28.694Z,26.10
2019-04-20T07:22:25.064Z,29.30
2019-04-20T07:24:53.137Z,30.13
2019-04-20T07:27:13.547Z,30.43
2019-04-20T07:29:49.149Z,26.33
2019-04-20T07:32:07.652Z,27.50
2019-04-20T07:34:38.736Z,26.67
2019-04-20T07:37:41.964Z,28.23
2019-04-20T07:39:48.272Z,27.97
2019-04-20T07:42:19.173Z,27.60
2019-04-20T07:44:49.762Z,23.03
2019-04-20T07:47:13.713Z,27.57
2019-04-20T07:49:44.367Z,26.83
2019-04-20T07:51:51.086Z,36.27
2019-04-20T07:54:49.274Z,26.03
2019-04-20T07:57:04.018Z,26.87
2019-04-20T07:59:27.282Z,26.43
2019-04-20T08:02:24.973Z,25.33
2019-04-20T08:05:07.369Z,22.03
2019-04-20T08:07:17.900Z,22.13
2019-04-20T08:09:54.747Z,27.67
2019-04-20T08:12:54.127Z,23.83
2019-04-20T08:15:22.073Z,23.07
2019-04-20T08:17:51.275Z,30.37
2019-04-20T08:20:09.172Z,24.30
2019-04-20T08:22:42.157Z,22.27
2019-04-20T08:25:06.723Z,23.93
2019-04-20T08:27:23.364Z,22.53
2019-04-20T08:30:21.418Z,22.07
2019-04-20T08:33:04.256Z,29.10
2019-04-20T08:35:39.301Z,28.57
2019-04-20T08:38:33.738Z,22.13
2019-04-20T08:40:37.390Z,18.87
2019-04-20T08:43:10.940Z,20.60
2019-04-20T08:45:42.035Z,18.40
2019-04-20T08:48:12.856Z,26.80
2019-04-20T08:50:35.675Z,24.40
2019-04-20T08:55:29.836Z,23.37
2019-04-20T08:57:42.452Z,24.93
2019-04-20T09:00:11.110Z,23.77
2019-04-20T09:02:41.332Z,22.53
2019-04-20T09:05:18.580Z,29.27
2019-04-20T09:07:50.092Z,18.73
2019-04-20T09:10:32.416Z,21.60
2019-04-20T09:12:53.127Z,17.57
2019-04-20T09:15:08.283Z,16.63
2019-04-20T09:17:46.703Z,13.53
2019-04-20T09:20:14.750Z,19.33
2019-04-20T09:23:33.953Z,16.00
2019-04-20T09:26:10.489Z,21.77
2019-04-20T09:28:33.432Z,18.40
2019-04-20T09:31:29.751Z,16.23
2019-04-20T09:34:07.461Z,19.73
2019-04-20T09:36:38.622Z,22.60
2019-04-20T09:39:33.585Z,17.47
2019-04-20T09:42:09.197Z,14.30
2019-04-20T09:44:41.044Z,15.90
2019-04-20T09:47:07.327Z,18.03
2019-04-20T09:49:45.540Z,23.13
2019-04-20T09:52:26.164Z,19.53
2019-04-20T09:54:51.156Z,14.33
2019-04-20T09:57:25.503Z,16.90
2019-04-20T09:59:55.391Z,19.70
2019-04-20T10:02:12.884Z,20.00
2019-04-20T10:04:31.766Z,13.90
2019-04-20T10:07:05.926Z,19.83
2019-04-20T10:09:32.594Z,21.33
2019-04-20T10:11:57.532Z,16.17
2019-04-20T10:14:24.925Z,12.90
2019-04-20T10:16:52.147Z,17.67
2019-04-20T10:19:24.913Z,18.83
2019-04-20T10:21:48.724Z,13.10
2019-04-20T10:24:16.690Z,12.00
2019-04-20T10:26:44.914Z,16.47
2019-04-20T10:29:13.242Z,13.23
2019-04-20T10:31:46.908Z,18.70
2019-04-20T10:34:09.616Z,15.93
2019-04-20T10:36:57.533Z,18.03
2019-04-20T10:39:25.116Z,12.10
2019-04-20T10:41:56.212Z,14.33
2019-04-20T10:44:21.338Z,11.93
2019-04-20T10:46:49.148Z,14.17
2019-04-20T10:49:17.523Z,15.57
2019-04-20T10:51:44.812Z,12.63
2019-04-20T10:54:12.214Z,15.13
2019-04-20T10:56:39.459Z,17.17
2019-04-20T10:59:07.700Z,11.53
2019-04-20T11:01:35.828Z,19.77
2019-04-20T11:04:03.245Z,14.17
2019-04-20T11:06:30.374Z,13.30
2019-04-20T11:08:58.524Z,8.33
2019-04-20T11:11:28.657Z,13.73
2019-04-20T11:13:55.376Z,12.40
2019-04-20T11:16:22.475Z,12.73
2019-04-20T11:18:49.632Z,9.60
2019-04-20T11:21:19.911Z,9.53
2019-04-20T11:23:46.986Z,8.20
2019-04-20T11:26:14.217Z,10.57
2019-04-20T11:28:42.013Z,9.10
2019-04-20T11:31:10.263Z,9.87
2019-04-20T11:33:38.375Z,11.60
2019-04-20T11:36:07.320Z,7.90
2019-04-20T11:38:35.249Z,10.57
2019-04-20T11:41:11.380Z,9.73
2019-04-20T11:43:31.603Z,7.47
2019-04-20T11:45:58.781Z,6.87
2019-04-20T11:48:25.892Z,7.80
2019-04-20T11:50:53.596Z,9.63
2019-04-20T11:53:21.525Z,12.60
2019-04-20T11:55:48.867Z,10.57
2019-04-20T11:58:16.376Z,8.03
2019-04-20T12:00:56.058Z,8.47
2019-04-20T12:03:28.264Z,11.17
2019-04-20T12:05:53.791Z,9.23
2019-04-20T12:08:20.749Z,10.07
2019-04-20T12:10:53.965Z,8.23
2019-04-20T12:13:18.392Z,9.63
2019-04-20T12:15:45.663Z,8.50
2019-04-20T12:18:13.779Z,7.47
2019-04-20T12:20:41.030Z,5.60
2019-04-20T12:23:08.549Z,7.50
2019-04-20T12:25:36.740Z,9.00
2019-04-20T12:28:05.437Z,7.67
2019-04-20T12:30:33.503Z,9.47
2019-04-20T12:33:02.164Z,8.60
2019-04-20T12:35:30.258Z,38.63
2019-04-20T12:37:58.988Z,9.37
2019-04-20T12:40:26.272Z,7.27
2019-04-20T12:42:53.373Z,13.10
2019-04-20T12:45:21.801Z,13.73
2019-04-20T12:47:51.375Z,6.93
2019-04-20T12:50:19.319Z,7.77
2019-04-20T12:52:46.537Z,7.33
2019-04-20T12:55:14.608Z,7.70
2019-04-20T12:57:42.812Z,8.80
2019-04-20T13:00:11.889Z,9.37
2019-04-20T13:02:39.125Z,7.87
2019-04-20T13:05:07.277Z,9.13
2019-04-20T13:07:39.601Z,10.10
2019-04-20T13:10:05.685Z,7.67
2019-04-20T13:12:52.305Z,7.53
2019-04-20T13:16:00.398Z,10.47
2019-04-20T13:18:47.860Z,7.43
2019-04-20T13:21:14.963Z,10.60
2019-04-20T13:23:42.855Z,6.60
2019-04-20T13:26:10.997Z,7.30
2019-04-20T13:28:39.134Z,7.63
2019-04-20T13:31:11.621Z,8.93
2019-04-20T13:33:39.116Z,5.50
2019-04-20T13:36:06.327Z,9.03
2019-04-20T13:38:34.219Z,7.30
2019-04-20T13:41:03.946Z,6.77
2019-04-20T13:43:32.061Z,6.73
2019-04-20T13:46:00.467Z,8.00
2019-04-20T13:48:28.857Z,6.67
2019-04-20T13:50:56.168Z,7.07
2019-04-20T13:53:23.474Z,8.10
2019-04-20T13:55:50.694Z,8.73
2019-04-20T13:58:38.166Z,10.63
2019-04-20T14:01:31.198Z,7.83
2019-04-20T14:04:19.319Z,11.03
2019-04-20T14:06:47.671Z,8.47
2019-04-20T14:09:21.647Z,9.10
2019-04-20T14:11:51.739Z,8.53
2019-04-20T14:14:19.294Z,9.10
2019-04-20T14:16:47.401Z,15.37
2019-04-20T14:19:14.703Z,7.23
2019-04-20T14:21:41.884Z,7.17
2019-04-20T14:24:09.066Z,7.47
2019-04-20T14:26:40.357Z,10.53
2019-04-20T14:29:05.466Z,9.90
2019-04-20T14:31:52.119Z,10.60
2019-04-20T14:34:20.660Z,9.63
2019-04-20T14:36:48.823Z,9.00
2019-04-20T14:39:16.230Z,9.77
2019-04-20T14:41:44.463Z,7.57
2019-04-20T14:44:12.100Z,9.47
2019-04-20T14:46:40.004Z,7.43
2019-04-20T14:49:07.214Z,13.17
2019-04-20T14:51:35.327Z,7.77
2019-04-20T14:54:03.347Z,8.40
2019-04-20T14:56:31.477Z,7.10
2019-04-20T14:59:07.801Z,8.50
2019-04-20T15:01:50.408Z,7.57
2019-04-20T15:04:20.373Z,11.20
2019-04-20T15:06:46.733Z,6.87
2019-04-20T15:09:14.777Z,8.23
2019-04-20T15:11:44.287Z,6.37
2019-04-20T15:14:11.171Z,8.07
2019-04-20T15:16:38.554Z,8.67
2019-04-20T15:19:31.713Z,7.17
2019-04-20T15:22:00.835Z,8.77
2019-04-20T15:24:29.281Z,8.20
2019-04-20T15:26:56.633Z,8.37
2019-04-20T15:29:24.242Z,7.87
2019-04-20T15:31:54.272Z,7.67
2019-04-20T15:34:23.101Z,8.27
2019-04-20T15:36:50.233Z,11.73
2019-04-20T15:39:17.333Z,10.57
2019-04-20T15:41:45.305Z,10.53
2019-04-20T15:47:24.154Z,12.30
2019-04-20T15:49:51.708Z,11.93
2019-04-20T15:52:24.499Z,10.13
2019-04-20T15:54:49.594Z,12.23
2019-04-20T15:57:23.002Z,10.83
2019-04-20T16:04:01.497Z,15.33
2019-04-20T16:06:29.583Z,18.17
2019-04-20T16:09:00.011Z,10.83
2019-04-20T16:11:28.675Z,13.80
2019-04-20T16:13:57.727Z,15.03
2019-04-20T16:16:25.681Z,10.60
2019-04-20T16:18:52.931Z,13.43
2019-04-20T16:21:24.323Z,18.57
2019-04-20T16:24:16.902Z,10.77
2019-04-20T16:27:05.281Z,9.17
2019-04-20T16:29:33.549Z,9.90
2019-04-20T16:32:00.814Z,8.77
2019-04-20T16:34:27.946Z,8.77
2019-04-20T16:36:57.802Z,10.37
2019-04-20T16:39:24.714Z,10.30
2019-04-20T16:41:54.066Z,18.83
2019-04-20T16:44:21.287Z,9.87
2019-04-20T16:46:48.407Z,10.17
2019-04-20T16:49:16.883Z,11.43
2019-04-20T16:51:45.105Z,11.83
2019-04-20T16:54:12.372Z,11.07
2019-04-20T16:56:39.796Z,8.43
2019-04-20T16:59:10.357Z,10.63
2019-04-20T17:01:37.123Z,9.13
2019-04-20T17:04:10.676Z,8.63
2019-04-20T17:06:34.238Z,9.13
2019-04-20T17:09:01.423Z,9.63
2019-04-20T17:11:29.880Z,6.63
2019-04-20T17:13:59.922Z,10.67
2019-04-20T17:16:26.297Z,8.90
2019-04-20T17:18:53.385Z,10.87
2019-04-20T17:21:25.320Z,13.23
2019-04-20T17:23:51.466Z,10.50
2019-04-20T17:26:29.539Z,9.63
2019-04-20T17:29:10.353Z,12.53
2019-04-20T17:32:09.859Z,10.33
2019-04-20T17:34:54.430Z,15.57
2019-04-20T17:37:06.766Z,11.17
2019-04-20T17:39:45.316Z,14.13
2019-04-20T17:42:20.987Z,14.27
2019-04-20T17:44:52.948Z,9.83
2019-04-20T17:47:35.036Z,11.40
2019-04-20T17:50:02.093Z,11.27
2019-04-20T17:52:33.971Z,12.90
2019-04-20T17:54:45.352Z,11.50
2019-04-20T17:57:13.078Z,13.90
2019-04-20T17:59:51.215Z,11.03
2019-04-20T18:02:53.554Z,12.43
2019-04-20T18:05:27.061Z,12.53
2019-04-20T18:08:02.663Z,16.60
2019-04-20T18:10:26.401Z,12.07
2019-04-20T18:12:57.005Z,13.83
2019-04-20T18:15:43.826Z,15.37
2019-04-20T18:18:35.453Z,10.53
2019-04-20T18:21:10.750Z,13.87
2019-04-20T18:23:44.857Z,14.80
2019-04-20T18:26:35.845Z,12.73
2019-04-20T18:29:03.304Z,16.23
2019-04-20T18:31:15.466Z,13.17
2019-04-20T18:33:44.362Z,12.20
2019-04-20T18:36:13.432Z,13.30
2019-04-20T18:38:49.619Z,16.37
2019-04-20T18:41:21.008Z,17.07
2019-04-20T18:43:46.032Z,18.93
2019-04-20T18:46:22.840Z,16.13
2019-04-20T18:48:54.384Z,14.20
2019-04-20T18:51:05.966Z,15.03
2019-04-20T18:53:39.215Z,14.73
2019-04-20T18:56:04.265Z,13.87
2019-04-20T18:58:31.510Z,14.53
2019-04-20T19:01:19.174Z,14.87
2019-04-20T19:03:47.703Z,15.70
2019-04-20T19:06:16.092Z,15.60
2019-04-20T19:08:49.394Z,13.37
2019-04-20T19:11:21.629Z,11.93
2019-04-20T19:17:16.688Z,16.70
2019-04-20T19:20:34.946Z,19.97
2019-04-20T19:23:02.363Z,15.67
2019-04-20T19:25:34.328Z,17.67
2019-04-20T19:28:01.285Z,17.20
2019-04-20T19:30:37.384Z,13.37
2019-04-20T19:33:17.582Z,16.40
2019-04-20T19:35:40.623Z,17.27
2019-04-20T19:38:09.155Z,14.00
2019-04-20T19:40:38.553Z,15.20
2019-04-20T19:43:11.105Z,16.00
2019-04-20T19:45:51.273Z,12.40
2019-04-20T19:48:12.413Z,12.50
2019-04-20T19:50:50.465Z,15.57
2019-04-20T19:53:21.166Z,16.67
2019-04-20T19:55:40.453Z,12.93
2019-04-20T19:58:10.420Z,18.80
2019-04-20T20:00:46.312Z,13.03
2019-04-20T20:03:12.148Z,17.47
2019-04-20T20:05:44.879Z,16.50
2019-04-20T20:08:14.895Z,15.43
2019-04-20T20:10:40.674Z,17.13
2019-04-20T20:13:43.021Z,17.80
2019-04-20T20:16:10.572Z,21.03
2019-04-20T20:18:46.723Z,19.00
2019-04-20T20:21:16.115Z,15.77
2019-04-20T20:23:32.163Z,21.13
2019-04-20T20:29:38.444Z,18.63
2019-04-20T20:32:15.460Z,16.50
2019-04-20T20:34:36.374Z,21.10
2019-04-20T20:37:04.297Z,20.50
2019-04-20T20:39:32.602Z,15.07
2019-04-20T20:42:13.136Z,16.37
2019-04-20T20:44:38.927Z,17.60
2019-04-20T20:47:20.983Z,15.03
2019-04-20T20:49:48.019Z,18.67
2019-04-20T20:52:17.408Z,16.43
2019-04-20T20:54:37.739Z,22.47
2019-04-20T20:57:07.361Z,16.30
2019-04-20T20:59:42.977Z,16.00
2019-04-20T21:02:06.891Z,14.83
2019-04-20T21:04:29.984Z,16.97
2019-04-20T21:06:58.311Z,17.53
2019-04-20T21:09:27.100Z,18.60
2019-04-20T21:12:00.625Z,15.30
2019-04-20T21:14:29.132Z,17.70
2019-04-20T21:17:01.773Z,14.33
2019-04-20T21:19:55.006Z,16.47
2019-04-20T21:22:13.179Z,22.70
2019-04-20T21:24:37.983Z,20.50
2019-04-20T21:27:08.875Z,16.83
2019-04-20T21:29:40.769Z,24.00
2019-04-20T21:32:09.300Z,16.77
2019-04-20T21:34:33.154Z,19.73
2019-04-20T21:37:04.447Z,19.67
2019-04-20T21:39:39.337Z,19.63
2019-04-20T21:42:12.031Z,20.07
2019-04-20T21:44:37.497Z,16.80
2019-04-20T21:47:03.446Z,18.37
2019-04-20T21:49:43.882Z,17.27
2019-04-20T21:52:03.655Z,15.20
2019-04-20T21:54:29.846Z,16.40
2019-04-20T21:57:08.961Z,16.53
2019-04-20T21:59:40.916Z,18.00
2019-04-20T22:02:12.911Z,13.77
2019-04-20T22:04:33.553Z,16.90
2019-04-20T22:07:00.762Z,12.53
2019-04-20T22:09:37.138Z,13.87
2019-04-20T22:11:58.282Z,16.43
2019-04-20T22:14:29.582Z,15.80
2019-04-20T22:16:57.441Z,12.07
2019-04-20T22:19:36.764Z,17.77
2019-04-20T22:22:05.562Z,16.97
2019-04-20T22:24:40.308Z,13.47
2019-04-20T22:27:04.968Z,14.97
2019-04-20T22:29:21.850Z,12.30
2019-04-20T22:31:53.472Z,13.90
2019-04-20T22:34:21.339Z,16.90
2019-04-20T22:36:48.718Z,14.00
2019-04-20T22:39:42.134Z,12.80
2019-04-20T22:42:10.815Z,12.57
2019-04-20T22:44:36.349Z,16.33
2019-04-20T22:47:23.338Z,11.50
2019-04-20T22:50:11.905Z,13.53
2019-04-20T22:52:36.246Z,12.37
2019-04-20T22:55:01.233Z,16.67
2019-04-20T22:57:31.772Z,12.87
2019-04-20T22:59:53.956Z,14.47
2019-04-20T23:02:13.597Z,15.10
2019-04-20T23:04:40.868Z,15.37
2019-04-20T23:07:08.544Z,16.30
2019-04-20T23:09:43.796Z,14.93
2019-04-20T23:12:11.332Z,14.63
2019-04-20T23:14:34.293Z,16.13
2019-04-20T23:17:02.145Z,15.87
2019-04-20T23:19:38.236Z,22.07
2019-04-20T23:22:02.905Z,15.30
2019-04-20T23:24:29.047Z,14.03
2019-04-20T23:26:57.387Z,14.80
2019-04-20T23:29:27.227Z,15.77
2019-04-20T23:31:59.616Z,15.80
2019-04-20T23:34:25.549Z,21.07
2019-04-20T23:36:52.563Z,18.13
2019-04-20T23:39:23.334Z,21.03
2019-04-20T23:41:55.374Z,20.57
2019-04-20T23:44:29.246Z,18.43
2019-04-20T23:47:18.358Z,16.83
2019-04-20T23:50:03.375Z,15.40
2019-04-20T23:52:42.453Z,14.33
2019-04-20T23:54:54.303Z,15.17
2019-04-20T23:57:17.585Z,17.20
2019-04-20T23:59:46.649Z,14.20
